Time;durP1;ratioP1;P1;durP2;ratioP2;P2;SDS_P1;SDS_P2;PMS_P1;PMS_P2;Temp;Humidity;BMP_temperature;BMP_pressure;BME280_temperature;BME280_humidity;BME280_pressure;Samples;Min_cycle;Max_cycle;Signal;HPM_P1;HPM_P2
2023/05/09 00:01:57;;;;;;;;;11.00;7.00;;;;;7.24;76.69;100369.25;6301412;20;1808679;-58
2023/05/09 00:04:26;;;;;;;;;12.40;11.00;;;;;6.83;78.28;100365.41;6339305;20;2789888;-57
2023/05/09 00:06:53;;;;;;;;;11.00;11.00;;;;;6.82;78.19;100353.88;6281068;20;2796143;-58
2023/05/09 00:09:22;;;;;;;;;11.00;11.00;;;;;7.36;76.14;100353.69;6301061;20;1816027;-58
2023/05/09 00:11:49;;;;;;;;;11.50;10.50;;;;;7.04;77.45;100353.97;6311226;20;2791952;-59
2023/05/09 00:14:17;;;;;;;;;12.00;10.00;;;;;7.13;77.13;100354.53;6283553;20;2790045;-58
2023/05/09 00:16:44;;;;;;;;;10.00;10.00;;;;;7.18;76.16;100356.13;6280107;20;2782672;-57
2023/05/09 00:19:14;;;;;;;;;12.20;10.20;;;;;7.20;76.02;100356.06;6307641;20;2794097;-58
2023/05/09 00:21:41;;;;;;;;;11.00;11.00;;;;;7.12;76.86;100353.69;6281196;20;2789909;-57
2023/05/09 00:24:08;;;;;;;;;9.00;9.00;;;;;7.22;76.46;100347.06;6281716;20;2756529;-58
2023/05/09 00:26:37;;;;;;;;;11.60;11.60;;;;;7.07;76.85;100352.97;6308336;20;2794078;-58
2023/05/09 00:29:04;;;;;;;;;9.00;9.00;;;;;6.89;77.09;100350.97;6285083;20;2736750;-58
2023/05/09 00:31:32;;;;;;;;;15.50;12.00;;;;;7.05;76.60;100352.16;6286752;20;2791955;-58
2023/05/09 00:33:59;;;;;;;;;12.00;12.00;;;;;6.98;77.21;100351.53;6283804;20;2794077;-58
2023/05/09 00:36:26;;;;;;;;;12.00;11.00;;;;;7.02;77.02;100345.13;6281956;20;2801333;-58
2023/05/09 00:38:56;;;;;;;;;11.80;10.40;;;;;6.97;77.69;100338.22;6307196;20;2792049;-59
2023/05/09 00:41:23;;;;;;;;;15.50;12.00;;;;;6.93;77.54;100344.63;6284850;20;2789840;-57
2023/05/09 00:43:51;;;;;;;;;12.33;11.00;;;;;6.82;77.82;100343.19;6284618;20;3527417;-57
2023/05/09 00:46:20;;;;;;;;;12.80;9.80;;;;;7.00;77.46;100339.00;6337164;20;2777491;-57
2023/05/09 00:48:51;;;;;;;;;11.60;11.60;;;;;6.89;77.88;100338.50;6305470;20;2811918;-56
2023/05/09 00:51:20;;;;;;;;;15.00;12.67;;;;;6.64;79.09;100346.50;6280755;20;3535674;-58
2023/05/09 00:53:48;;;;;;;;;16.67;13.00;;;;;6.72;79.46;100344.44;6308141;20;2803395;-57
2023/05/09 00:56:16;;;;;;;;;11.00;11.00;;;;;6.76;79.70;100339.84;6307805;20;2778505;-58
2023/05/09 00:58:44;;;;;;;;;11.00;11.00;;;;;6.78;78.92;100338.88;6283296;20;2807680;-57
2023/05/09 01:01:11;;;;;;;;;15.00;12.50;;;;;6.56;80.12;100337.91;6315114;20;2807630;-57
2023/05/09 01:03:40;;;;;;;;;13.00;12.67;;;;;6.66;79.57;100339.34;6282648;20;2799249;-56
2023/05/09 01:06:38;;;;;;;;;10.67;10.67;;;;;6.56;79.49;100341.44;6308587;20;2799406;-56
2023/05/09 01:09:44;;;;;;;;;15.00;12.80;;;;;6.55;80.18;100341.47;6336110;20;2805510;-57
2023/05/09 01:12:55;;;;;;;;;16.33;13.33;;;;;6.63;79.76;100342.06;6280195;20;2817154;-56
2023/05/09 01:15:25;;;;;;;;;10.50;10.50;;;;;6.42;80.42;100337.50;6307024;20;2802390;-55
2023/05/09 01:17:57;;;;;;;;;16.00;13.00;;;;;6.39;81.80;100338.47;6284164;20;2813879;-57
2023/05/09 01:20:35;;;;;;;;;17.67;13.00;;;;;6.53;81.01;100337.97;6281917;20;3535699;-58
2023/05/09 01:23:21;;;;;;;;;12.00;12.00;;;;;6.48;81.50;100338.16;6311055;20;2809777;-58
2023/05/09 01:26:05;;;;;;;;;12.67;12.00;;;;;6.60;80.47;100335.06;6279886;20;3523310;-57
2023/05/09 01:28:52;;;;;;;;;14.50;13.00;;;;;6.49;80.49;100336.38;6314364;20;2802409;-58
2023/05/09 01:31:20;;;;;;;;;15.50;14.00;;;;;6.31;81.75;100333.38;6281021;20;2801374;-57
2023/05/09 01:33:56;;;;;;;;;13.67;13.67;;;;;6.31;82.65;100327.19;6282383;20;3530432;-54
2023/05/09 01:36:28;;;;;;;;;10.00;10.00;;;;;6.25;82.45;100333.59;6305315;20;2785663;-55
2023/05/09 01:38:58;;;;;;;;;12.00;11.00;;;;;5.96;84.67;100336.34;6281266;20;2799244;-57
2023/05/09 01:41:30;;;;;;;;;11.33;11.33;;;;;6.02;84.14;100333.47;6279896;20;2791648;-57
2023/05/09 01:44:02;;;;;;;;;10.50;10.50;;;;;6.09;84.49;100327.03;6311627;20;2792004;-57
2023/05/09 01:46:31;;;;;;;;;13.00;13.00;;;;;6.18;82.88;100337.38;6280459;20;2798352;-56
2023/05/09 01:49:01;;;;;;;;;19.67;13.67;;;;;6.01;83.59;100334.41;6313243;20;3548293;-57
2023/05/09 01:51:30;;;;;;;;;15.00;13.33;;;;;5.83;85.66;100328.72;6312117;20;2802486;-55
2023/05/09 01:54:00;;;;;;;;;12.00;12.00;;;;;6.05;85.17;100325.38;6316666;20;2801399;-59
2023/05/09 01:56:28;;;;;;;;;12.00;11.00;;;;;6.12;83.71;100326.94;6281250;20;2745080;-58
2023/05/09 01:58:58;;;;;;;;;13.50;11.00;;;;;6.15;83.80;100326.81;6286119;20;2795073;-57
2023/05/09 02:01:26;;;;;;;;;15.00;13.00;;;;;6.09;83.18;100333.25;6279995;20;2810699;-58
2023/05/09 02:03:56;;;;;;;;;13.00;13.00;;;;;6.10;83.24;100328.78;6309906;20;3540942;-56
2023/05/09 02:06:28;;;;;;;;;18.00;13.00;;;;;5.98;84.13;100329.16;6311772;20;3545458;-56
2023/05/09 02:08:57;;;;;;;;;13.00;11.00;;;;;6.13;83.14;100326.00;6312611;20;2788931;-58
2023/05/09 02:11:24;;;;;;;;;15.00;14.00;;;;;6.06;83.40;100321.81;6282870;20;2812774;-58
2023/05/09 02:13:52;;;;;;;;;13.00;12.00;;;;;6.14;83.04;100325.09;6282076;20;2791343;-57
2023/05/09 02:16:21;;;;;;;;;16.00;13.67;;;;;6.15;83.60;100321.50;6281913;20;3546214;-58
2023/05/09 02:18:51;;;;;;;;;14.00;14.00;;;;;6.06;83.83;100311.16;6308765;20;3535767;-58
2023/05/09 02:21:19;;;;;;;;;13.67;13.00;;;;;6.11;83.59;100314.53;6310494;20;2798548;-57
2023/05/09 02:23:46;;;;;;;;;15.00;14.00;;;;;5.87;83.99;100316.16;6320118;20;2809657;-58
2023/05/09 02:26:14;;;;;;;;;15.00;15.00;;;;;5.99;84.27;100312.25;6283284;20;2815917;-58
2023/05/09 02:28:45;;;;;;;;;13.80;12.80;;;;;5.96;84.28;100315.03;6307819;20;2788956;-58
2023/05/09 02:31:13;;;;;;;;;14.00;12.00;;;;;5.85;84.24;100318.00;6282248;20;2794050;-59
2023/05/09 02:33:42;;;;;;;;;13.67;13.00;;;;;5.77;84.81;100309.41;6281439;20;3539888;-58
2023/05/09 02:36:13;;;;;;;;;16.33;14.00;;;;;5.82;84.57;100313.66;6312136;20;3555496;-58
2023/05/09 02:38:43;;;;;;;;;17.67;13.67;;;;;5.73;85.02;100305.94;6315810;20;3551384;-57
2023/05/09 02:41:15;;;;;;;;;14.00;12.00;;;;;5.88;84.31;100310.78;6311660;20;3525327;-58
2023/05/09 02:43:43;;;;;;;;;14.00;14.00;;;;;5.81;84.50;100311.03;6314785;20;2805592;-59
2023/05/09 02:46:12;;;;;;;;;16.00;15.20;;;;;5.66;84.84;100301.72;6336016;20;2814913;-57
2023/05/09 02:48:40;;;;;;;;;15.50;13.00;;;;;5.85;84.92;100308.22;6285738;20;2817093;-58
2023/05/09 02:51:07;;;;;;;;;15.00;13.00;;;;;5.80;85.24;100310.16;6281599;20;2807545;-58
2023/05/09 02:53:34;;;;;;;;;13.00;13.00;;;;;5.86;84.47;100312.63;6282558;20;2806523;-59
2023/05/09 02:56:02;;;;;;;;;15.00;13.00;;;;;5.86;84.90;100301.97;6287564;20;2816984;-58
2023/05/09 02:58:30;;;;;;;;;18.33;16.33;;;;;5.67;84.90;100298.16;6282794;20;3566419;-58
2023/05/09 03:01:00;;;;;;;;;17.33;16.17;;;;;5.81;85.15;100306.56;6308319;20;2824264;-58
2023/05/09 03:03:32;;;;;;;;;16.00;14.00;;;;;5.78;85.52;100311.13;6312020;20;2815963;-59
2023/05/09 03:06:01;;;;;;;;;15.67;14.00;;;;;5.72;85.45;100301.53;6313121;20;3544033;-58
2023/05/09 03:08:28;;;;;;;;;16.50;14.00;;;;;5.91;84.68;100313.34;6313319;20;2818041;-58
2023/05/09 03:10:56;;;;;;;;;14.00;14.00;;;;;5.83;85.02;100309.19;6279872;20;3536818;-59
2023/05/09 03:13:23;;;;;;;;;15.00;12.00;;;;;5.92;85.14;100317.78;6318068;20;2794015;-58
2023/05/09 03:15:51;;;;;;;;;14.67;13.67;;;;;5.83;85.81;100306.53;6280239;20;3541962;-59
2023/05/09 03:18:19;;;;;;;;;20.00;17.00;;;;;5.71;86.24;100307.78;6315376;20;2824379;-58
2023/05/09 03:20:46;;;;;;;;;13.00;12.00;;;;;5.82;85.35;100312.75;6283241;20;2790001;-58
2023/05/09 03:23:14;;;;;;;;;15.67;13.33;;;;;5.93;84.89;100311.53;6281749;20;2809262;-56
2023/05/09 03:25:42;;;;;;;;;13.33;13.00;;;;;5.99;84.60;100315.78;6313953;20;2810958;-57
2023/05/09 03:28:10;;;;;;;;;15.00;13.33;;;;;5.76;85.16;100303.16;6315263;20;3543310;-57
2023/05/09 03:30:38;;;;;;;;;18.50;15.00;;;;;5.98;84.41;100307.84;6316324;20;2815236;-58
2023/05/09 03:33:06;;;;;;;;;17.67;15.67;;;;;6.01;84.73;100308.63;6281321;20;3547127;-57
2023/05/09 03:35:34;;;;;;;;;16.50;13.50;;;;;6.09;84.32;100295.91;6313314;20;2807534;-56
2023/05/09 03:38:02;;;;;;;;;18.00;15.50;;;;;5.97;84.52;100306.97;6284394;20;2765939;-58
2023/05/09 03:40:30;;;;;;;;;16.67;16.67;;;;;6.02;83.96;100305.03;6314565;20;3558711;-57
2023/05/09 03:42:58;;;;;;;;;12.00;11.00;;;;;5.97;83.13;100306.09;6312723;20;3509602;-57
2023/05/09 03:45:26;;;;;;;;;18.33;15.33;;;;;6.02;83.40;100309.50;6312215;20;3546101;-58
2023/05/09 03:47:55;;;;;;;;;14.40;14.00;;;;;5.97;83.75;100309.63;6338205;20;2810714;-57
2023/05/09 03:50:25;;;;;;;;;14.40;14.00;;;;;6.00;84.45;100316.66;6306505;20;2812243;-59
2023/05/09 03:52:54;;;;;;;;;15.00;13.67;;;;;5.98;85.38;100313.16;6283826;20;2800508;-58
2023/05/09 03:55:22;;;;;;;;;16.00;16.00;;;;;6.10;84.48;100316.31;6312987;20;3550368;-58
2023/05/09 03:57:50;;;;;;;;;16.00;15.00;;;;;6.17;84.75;100319.66;6314551;20;2809715;-58
2023/05/09 04:00:20;;;;;;;;;13.00;13.00;;;;;6.25;82.96;100309.59;6313304;20;2802792;-57
2023/05/09 04:02:49;;;;;;;;;16.33;14.67;;;;;6.38;83.62;100318.94;6312428;20;3544011;-58
2023/05/09 04:05:16;;;;;;;;;14.50;13.00;;;;;6.64;82.19;100327.84;6317281;20;2806529;-58
2023/05/09 04:07:44;;;;;;;;;16.67;15.33;;;;;6.76;81.28;100327.38;6284515;20;3555459;-60
2023/05/09 04:10:12;;;;;;;;;15.33;15.33;;;;;7.67;78.70;100322.19;6307857;20;3531009;-58
2023/05/09 04:12:41;;;;;;;;;18.00;14.67;;;;;8.31;75.29;100321.38;6313291;20;3531515;-59
2023/05/09 04:15:09;;;;;;;;;14.67;13.67;;;;;7.69;76.42;100330.16;6312512;20;3511711;-57
2023/05/09 04:17:37;;;;;;;;;17.50;14.50;;;;;7.22;78.87;100328.38;6315609;20;2816943;-58
2023/05/09 04:20:08;;;;;;;;;17.67;16.17;;;;;7.66;78.46;100327.59;6303789;20;2814951;-59
2023/05/09 04:22:36;;;;;;;;;15.67;14.00;;;;;11.71;63.60;100328.97;6312596;20;3548177;-59
2023/05/09 04:25:06;;;;;;;;;13.67;13.67;;;;;11.30;59.35;100329.47;6313567;20;3527361;-59
2023/05/09 04:27:33;;;;;;;;;16.00;14.00;;;;;9.91;66.38;100335.63;6315395;20;2815958;-59
2023/05/09 04:30:00;;;;;;;;;15.50;13.00;;;;;9.86;65.45;100333.16;6287072;20;2804444;-60
2023/05/09 04:32:28;;;;;;;;;10.50;9.00;;;;;9.86;67.66;100338.53;6283831;20;2772374;-59
2023/05/09 04:34:55;;;;;;;;;14.00;13.00;;;;;13.75;52.95;100350.00;6282820;20;2809682;-59
2023/05/09 04:37:22;;;;;;;;;13.50;12.50;;;;;16.62;43.51;100362.44;6281078;20;2792092;-59
2023/05/09 04:39:50;;;;;;;;;11.67;11.00;;;;;12.94;52.71;100345.13;6282117;20;2792124;-59
2023/05/09 04:42:17;;;;;;;;;12.00;12.00;;;;;12.24;57.68;100339.44;6317902;20;2790913;-60
2023/05/09 04:44:45;;;;;;;;;12.50;12.50;;;;;14.85;49.00;100349.06;6282955;20;2794195;-60
2023/05/09 04:47:14;;;;;;;;;10.00;10.00;;;;;15.59;47.22;100351.06;6307704;20;2784671;-59
2023/05/09 04:49:42;;;;;;;;;10.33;10.33;;;;;17.16;42.77;100354.75;6280087;20;3520100;-59
2023/05/09 04:52:09;;;;;;;;;11.50;11.00;;;;;17.47;42.06;100353.19;6316337;20;2783624;-59
2023/05/09 04:54:37;;;;;;;;;13.00;10.00;;;;;15.73;45.34;100347.38;6279545;20;2794128;-58
2023/05/09 04:57:05;;;;;;;;;12.67;12.67;;;;;14.32;49.72;100340.03;6306150;20;3527337;-60
2023/05/09 04:59:44;;;;;;;;;12.50;11.00;;;;;14.30;49.88;100347.34;6315388;20;2796190;-60
2023/05/09 05:02:12;;;;;;;;;10.00;10.00;;;;;11.96;58.77;100334.75;6278638;20;2780645;-59
2023/05/09 05:04:41;;;;;;;;;8.80;8.00;;;;;10.93;61.56;100336.81;6335864;20;2761738;-59
2023/05/09 05:07:08;;;;;;;;;10.00;9.00;;;;;11.24;61.18;100340.53;6280490;20;2777400;-59
2023/05/09 05:09:36;;;;;;;;;8.25;8.25;;;;;11.50;60.70;100334.59;6300336;20;1806682;-59
2023/05/09 05:12:06;;;;;;;;;11.00;9.00;;;;;12.24;58.29;100342.13;6317708;20;2771262;-58
2023/05/09 05:14:35;;;;;;;;;9.50;9.50;;;;;15.25;49.17;100349.03;6281165;20;2769069;-59
2023/05/09 05:17:03;;;;;;;;;10.67;9.33;;;;;16.36;45.38;100353.56;6276872;20;2778429;-60
2023/05/09 05:19:31;;;;;;;;;8.00;8.00;;;;;14.25;48.66;100347.69;6314604;20;2740926;-57
2023/05/09 05:21:58;;;;;;;;;7.50;6.00;;;;;14.61;49.70;100352.50;6279276;20;2739883;-59
2023/05/09 05:24:25;;;;;;;;;9.00;8.00;;;;;18.37;40.88;100364.00;6279148;20;2748207;-59
2023/05/09 05:26:54;;;;;;;;;9.20;9.00;;;;;16.67;42.39;100360.25;6304754;20;2744192;-59
2023/05/09 05:29:21;;;;;;;;;10.50;8.50;;;;;16.79;43.06;100369.31;6309940;20;2768103;-59
2023/05/09 05:31:49;;;;;;;;;9.67;9.67;;;;;19.18;38.66;100365.28;6282484;20;2775421;-59
2023/05/09 05:34:20;;;;;;;;;8.71;8.71;;;;;16.62;42.33;100361.59;6357418;20;3479422;-59
2023/05/09 05:36:48;;;;;;;;;9.00;9.00;;;;;14.56;48.62;100362.75;6311560;20;2747230;-59
2023/05/09 05:39:15;;;;;;;;;10.50;9.50;;;;;14.08;50.56;100354.19;6282158;20;2783632;-59
2023/05/09 05:41:44;;;;;;;;;8.80;8.40;;;;;13.20;53.28;100350.75;6306762;20;2758645;-58
2023/05/09 05:44:14;;;;;;;;;8.43;7.57;;;;;13.28;54.99;100345.78;6319851;20;3443142;-58
2023/05/09 05:46:44;;;;;;;;;7.33;7.33;;;;;12.35;57.77;100346.00;6352351;20;1797133;-58
2023/05/09 05:49:12;;;;;;;;;9.50;9.50;;;;;12.09;57.77;100340.31;6281661;20;2769026;-57
2023/05/09 05:51:39;;;;;;;;;8.00;8.00;;;;;11.88;59.96;100338.84;6284568;20;2734742;-58
2023/05/09 05:54:06;;;;;;;;;6.50;6.50;;;;;11.86;59.26;100338.91;6284981;20;2738830;-57
2023/05/09 05:56:34;;;;;;;;;6.50;6.00;;;;;12.21;58.43;100336.03;6283625;20;2731667;-54
2023/05/09 05:59:01;;;;;;;;;4.50;4.50;;;;;12.62;58.46;100340.81;6282173;20;2772285;-57
2023/05/09 06:01:32;;;;;;;;;8.00;6.00;;;;;13.01;55.83;100342.09;6325736;20;2479585;-58
2023/05/09 06:03:59;;;;;;;;;8.00;6.00;;;;;12.49;57.29;100336.16;6310746;20;2747170;-58
2023/05/09 06:06:27;;;;;;;;;6.00;4.00;;;;;12.07;57.10;100343.09;6272157;20;2753408;-55
2023/05/09 06:08:54;;;;;;;;;4.00;4.00;;;;;11.91;58.75;100347.59;6283929;20;2748280;-57
2023/05/09 06:11:22;;;;;;;;;3.00;3.00;;;;;11.83;58.75;100341.75;6281565;20;2741368;-54
2023/05/09 06:13:49;;;;;;;;;7.00;4.00;;;;;11.62;59.42;100342.00;6280401;20;2746173;-55
2023/05/09 06:16:17;;;;;;;;;7.00;4.50;;;;;11.94;59.34;100344.75;6281432;20;2744152;-54
2023/05/09 06:18:47;;;;;;;;;6.00;5.00;;;;;12.54;58.92;100345.81;6282555;20;2747163;-56
2023/05/09 06:21:14;;;;;;;;;3.00;3.00;;;;;12.35;58.38;100341.50;6282936;20;2745275;-55
2023/05/09 06:23:45;;;;;;;;;4.00;4.00;;;;;12.70;57.72;100342.09;6323496;20;2479542;-54
2023/05/09 06:26:32;;;;;;;;;4.00;4.00;;;;;12.56;57.64;100339.38;6319938;20;2631550;-54
2023/05/09 06:28:59;;;;;;;;;4.00;4.00;;;;;12.45;57.49;100337.31;6279141;20;2754584;-55
2023/05/09 06:31:26;;;;;;;;;3.00;3.00;;;;;12.50;57.12;100340.56;6282047;20;2747197;-56
2023/05/09 06:33:54;;;;;;;;;7.00;5.00;;;;;12.64;57.00;100347.00;6287426;20;2743025;-53
2023/05/09 06:36:21;;;;;;;;;4.00;4.00;;;;;12.95;56.43;100338.78;6287067;20;2744061;-56
2023/05/09 06:38:49;;;;;;;;;4.00;4.00;;;;;13.12;56.23;100343.16;6289044;20;2750380;-56
2023/05/09 06:41:16;;;;;;;;;5.00;5.00;;;;;13.49;55.68;100343.56;6290207;20;2748235;-54
2023/05/09 06:43:43;;;;;;;;;3.00;2.00;;;;;14.09;54.08;100350.53;6291236;20;2731580;-56
2023/05/09 06:46:10;;;;;;;;;5.00;3.50;;;;;14.65;52.97;100343.19;6288604;20;2754472;-57
2023/05/09 06:48:37;;;;;;;;;6.00;5.00;;;;;13.90;53.05;100340.06;6287409;20;2744138;-58
2023/05/09 06:51:05;;;;;;;;;4.00;4.00;;;;;14.15;53.43;100338.47;6288830;20;2739983;-56
2023/05/09 06:53:36;;;;;;;;;4.57;3.29;;;;;14.00;53.31;100341.19;6329883;20;3470170;-57
2023/05/09 06:56:04;;;;;;;;;4.00;4.00;;;;;15.06;51.93;100342.19;6317973;20;2745186;-57
2023/05/09 06:58:31;;;;;;;;;5.00;4.00;;;;;15.10;51.22;100335.59;6290303;20;2740914;-58
2023/05/09 07:00:58;;;;;;;;;3.00;3.00;;;;;15.55;49.63;100327.00;6289178;20;2744054;-58
2023/05/09 07:03:26;;;;;;;;;6.00;4.50;;;;;16.07;49.59;100327.78;6289178;20;2750335;-58
2023/05/09 07:05:55;;;;;;;;;2.50;2.50;;;;;15.89;49.05;100325.47;6289375;20;2742005;-57
2023/05/09 07:08:22;;;;;;;;;4.00;4.00;;;;;15.26;48.70;100320.97;6288890;20;2737777;-55
2023/05/09 07:10:50;;;;;;;;;3.00;3.00;;;;;15.24;49.33;100317.50;6288357;20;2742036;-57
2023/05/09 07:13:17;;;;;;;;;3.00;3.00;;;;;15.47;48.97;100324.84;6287527;20;2756551;-56
2023/05/09 07:15:44;;;;;;;;;3.50;3.00;;;;;15.72;48.54;100318.59;6289010;20;2741993;-59
2023/05/09 07:18:11;;;;;;;;;3.00;3.00;;;;;16.13;48.58;100321.91;6291624;20;2736748;-58
2023/05/09 07:20:41;;;;;;;;;5.00;3.60;;;;;15.48;48.89;100315.78;6324478;20;2756621;-57
2023/05/09 07:23:08;;;;;;;;;4.00;4.00;;;;;15.81;47.42;100308.91;6290244;20;2754440;-57
2023/05/09 07:25:35;;;;;;;;;3.50;3.50;;;;;16.68;47.02;100312.31;6289118;20;2755540;-57
2023/05/09 07:28:03;;;;;;;;;5.50;4.00;;;;;16.23;47.48;100309.41;6290915;20;2752470;-56
2023/05/09 07:30:30;;;;;;;;;4.00;4.00;;;;;16.08;47.68;100308.69;6288234;20;2745102;-56
2023/05/09 07:32:57;;;;;;;;;1.00;1.00;;;;;16.15;48.16;100309.13;6289845;20;2736707;-54
2023/05/09 07:35:25;;;;;;;;;4.00;4.00;;;;;16.56;46.33;100313.25;6286772;20;2754486;-51
2023/05/09 07:37:52;;;;;;;;;5.00;5.00;;;;;16.31;46.82;100306.13;6290675;20;2746119;-52
2023/05/09 07:40:19;;;;;;;;;3.00;3.00;;;;;15.91;47.46;100301.84;6290977;20;2732584;-54
2023/05/09 07:42:48;;;;;;;;;4.50;3.00;;;;;16.15;47.54;100298.28;6307030;20;1801425;-53
2023/05/09 07:45:16;;;;;;;;;3.50;3.50;;;;;16.75;46.83;100297.31;6315296;20;2750318;-56
2023/05/09 07:47:46;;;;;;;;;4.00;4.00;;;;;16.45;46.64;100301.38;6288190;20;2748267;-56
2023/05/09 07:50:16;;;;;;;;;5.00;5.00;;;;;16.74;46.68;100297.41;6286481;20;2747165;-56
2023/05/09 07:52:44;;;;;;;;;6.00;5.00;;;;;16.91;46.87;100297.00;6291238;20;2750335;-56
2023/05/09 07:55:12;;;;;;;;;3.00;3.00;;;;;17.11;45.83;100292.69;6286132;20;2754428;-58
2023/05/09 07:57:39;;;;;;;;;0.00;0.00;;;;;16.66;47.18;100293.44;6286873;20;2731556;-58
2023/05/09 08:00:10;;;;;;;;;5.50;4.50;;;;;16.87;46.60;100295.50;6289815;20;2748230;-55
2023/05/09 08:02:37;;;;;;;;;4.00;4.00;;;;;16.80;45.65;100289.72;6287742;20;2756723;-58
2023/05/09 08:05:06;;;;;;;;;4.00;4.00;;;;;17.78;45.50;100292.69;6286392;20;2748266;-58
2023/05/09 08:07:34;;;;;;;;;5.00;5.00;;;;;17.72;44.99;100295.03;6290959;20;2747198;-57
2023/05/09 08:10:02;;;;;;;;;4.00;4.00;;;;;17.16;45.80;100284.19;6287035;20;2752357;-54
2023/05/09 08:12:29;;;;;;;;;3.00;3.00;;;;;16.86;46.01;100275.66;6288534;20;2744038;-58
2023/05/09 08:14:56;;;;;;;;;3.00;3.00;;;;;17.27;45.82;100276.94;6288155;20;2746158;-58
2023/05/09 08:17:23;;;;;;;;;4.00;4.00;;;;;17.47;45.02;100278.03;6287806;20;2750277;-58
2023/05/09 08:19:51;;;;;;;;;3.00;3.00;;;;;17.71;44.43;100277.03;6283934;20;2746237;-57
2023/05/09 08:22:19;;;;;;;;;3.00;3.00;;;;;17.63;44.86;100277.66;6286065;20;2739880;-56
2023/05/09 08:24:47;;;;;;;;;3.00;3.00;;;;;17.38;43.66;100272.47;6293026;20;2737820;-57
2023/05/09 08:27:16;;;;;;;;;4.00;1.80;;;;;18.12;43.45;100278.22;6309028;20;2741989;-57
2023/05/09 08:29:43;;;;;;;;;4.00;4.00;;;;;18.80;42.19;100278.78;6317655;20;2752396;-59
2023/05/09 08:32:10;;;;;;;;;2.00;2.00;;;;;18.43;42.67;100280.06;6288146;20;2744069;-59
2023/05/09 08:34:37;;;;;;;;;3.50;3.00;;;;;18.67;42.57;100278.09;6287731;20;2729444;-58
2023/05/09 08:37:05;;;;;;;;;4.00;2.00;;;;;18.55;42.55;100269.13;6285763;20;2752517;-55
2023/05/09 08:39:33;;;;;;;;;3.00;3.00;;;;;17.97;42.66;100280.34;6289048;20;2737773;-56
2023/05/09 08:42:01;;;;;;;;;4.50;4.00;;;;;18.00;42.80;100280.09;6289029;20;2756564;-59
2023/05/09 08:44:30;;;;;;;;;3.00;3.00;;;;;18.78;42.99;100278.06;6286887;20;2750391;-58
2023/05/09 08:47:00;;;;;;;;;3.00;2.00;;;;;18.55;42.40;100278.16;6286845;20;2744037;-59
2023/05/09 08:49:29;;;;;;;;;3.00;3.00;;;;;18.59;41.47;100274.19;6290380;20;2735718;-58
2023/05/09 08:51:58;;;;;;;;;3.00;3.00;;;;;18.62;41.57;100271.19;6308860;20;2733675;-58
2023/05/09 08:54:26;;;;;;;;;3.00;3.00;;;;;18.80;42.52;100278.78;6315415;20;2725441;-58
2023/05/09 08:56:54;;;;;;;;;4.00;4.00;;;;;18.27;42.90;100276.91;6284054;20;2754558;-59
2023/05/09 08:59:22;;;;;;;;;4.50;4.50;;;;;18.69;42.34;100274.25;6287910;20;2738894;-59
2023/05/09 09:01:49;;;;;;;;;3.00;3.00;;;;;18.59;41.90;100279.63;6286978;20;2745117;-58
2023/05/09 09:04:17;;;;;;;;;5.00;3.50;;;;;18.69;42.70;100270.66;6288063;20;2750293;-57
2023/05/09 09:06:45;;;;;;;;;3.00;3.00;;;;;18.96;41.68;100272.91;6285802;20;2731899;-59
2023/05/09 09:09:14;;;;;;;;;6.00;4.00;;;;;18.34;42.75;100264.53;6284870;20;2770066;-57
2023/05/09 09:11:44;;;;;;;;;6.40;5.00;;;;;18.38;42.74;100257.84;6296440;20;2736878;-58
2023/05/09 09:14:16;;;;;;;;;3.00;3.00;;;;;19.19;42.16;100257.25;6306579;20;2735702;-59
2023/05/09 09:16:47;;;;;;;;;5.80;4.20;;;;;19.44;40.99;100256.78;6305395;20;2744100;-59
2023/05/09 09:19:17;;;;;;;;;4.50;3.00;;;;;17.87;43.10;100252.22;6310619;20;2746152;-55
2023/05/09 09:21:46;;;;;;;;;4.00;4.00;;;;;17.78;44.45;100264.69;6285589;20;2740298;-58
2023/05/09 09:24:13;;;;;;;;;4.00;4.00;;;;;18.29;42.02;100255.91;6280162;20;2747157;-58
2023/05/09 09:26:49;;;;;;;;;3.00;3.00;;;;;18.54;42.80;100251.09;6287353;20;2735732;-58
2023/05/09 09:29:18;;;;;;;;;1.00;1.00;;;;;19.05;42.01;100253.03;6293951;20;2610841;-57
2023/05/09 09:31:46;;;;;;;;;6.00;4.00;;;;;18.74;43.70;100252.09;6281563;20;2744062;-58
2023/05/09 09:34:21;;;;;;;;;5.00;5.00;;;;;19.44;42.46;100255.94;6285872;20;2742076;-55
2023/05/09 09:36:49;;;;;;;;;7.00;5.00;;;;;19.24;41.32;100250.38;6280524;20;2745092;-60
2023/05/09 09:39:16;;;;;;;;;1.00;1.00;;;;;18.71;42.58;100252.34;6282697;20;2741988;-60
2023/05/09 09:41:44;;;;;;;;;3.00;3.00;;;;;17.56;45.02;100238.41;6286626;20;2738828;-61
2023/05/09 09:44:15;;;;;;;;;3.50;3.50;;;;;17.31;46.63;100256.69;6286902;20;2752383;-61
2023/05/09 09:46:49;;;;;;;;;3.50;3.50;;;;;18.60;43.67;100235.09;6280171;20;2746151;-61
2023/05/09 09:49:20;;;;;;;;;5.00;4.00;;;;;18.64;42.84;100242.03;6284520;20;2745115;-60
2023/05/09 09:51:52;;;;;;;;;4.00;2.00;;;;;19.56;41.25;100237.63;6283114;20;2740905;-61
2023/05/09 09:54:19;;;;;;;;;4.50;3.50;;;;;18.25;42.07;100234.56;6284115;20;2752443;-61
2023/05/09 09:56:49;;;;;;;;;2.00;2.00;;;;;18.73;41.97;100239.50;6280171;20;2756595;-61
2023/05/09 09:59:20;;;;;;;;;4.00;3.00;;;;;19.40;42.28;100240.84;6286596;20;2744061;-62
2023/05/09 10:02:07;;;;;;;;;3.00;3.00;;;;;19.40;41.02;100236.28;6286269;20;2740953;-62
2023/05/09 10:04:41;;;;;;;;;2.00;2.00;;;;;18.94;41.52;100234.94;6290737;20;2729487;-62
2023/05/09 10:07:09;;;;;;;;;3.00;3.00;;;;;19.81;40.72;100228.97;6288577;20;2729750;-60
2023/05/09 10:09:42;;;;;;;;;2.00;2.00;;;;;20.10;40.03;100230.88;6289908;20;2736784;-61
2023/05/09 10:12:13;;;;;;;;;3.00;3.00;;;;;19.74;40.17;100230.53;6289135;20;2748195;-58
2023/05/09 10:14:42;;;;;;;;;2.67;2.67;;;;;19.52;39.88;100229.72;6293771;20;2739894;-57
2023/05/09 10:17:13;;;;;;;;;2.67;1.67;;;;;19.84;38.62;100228.69;6318225;20;2750484;-58
2023/05/09 10:19:46;;;;;;;;;1.33;1.33;;;;;20.00;39.61;100219.09;6315848;20;2745072;-56
2023/05/09 10:22:18;;;;;;;;;4.67;3.00;;;;;19.63;41.22;100223.31;6315844;20;2743185;-62
2023/05/09 10:25:02;;;;;;;;;4.00;3.00;;;;;19.99;39.98;100228.28;6323000;20;2740050;-58
2023/05/09 10:27:35;;;;;;;;;1.00;1.00;;;;;19.93;40.47;100214.22;6316157;20;2729479;-59
2023/05/09 10:30:09;;;;;;;;;2.33;2.33;;;;;20.30;40.08;100213.53;6314771;20;2737780;-58
2023/05/09 10:32:49;;;;;;;;;3.00;3.00;;;;;19.60;39.98;100212.69;6317637;20;2740977;-56
2023/05/09 10:35:23;;;;;;;;;3.00;1.00;;;;;19.01;40.45;100203.47;6315628;20;2726478;-57
2023/05/09 10:37:58;;;;;;;;;3.00;2.00;;;;;19.55;42.12;100220.41;6317854;20;2752433;-57
2023/05/09 10:40:27;;;;;;;;;2.00;2.00;;;;;20.57;39.26;100217.41;6318002;20;2744166;-57
2023/05/09 10:42:55;;;;;;;;;3.00;3.00;;;;;20.40;38.88;100208.03;6318294;20;2743076;-57
2023/05/09 10:45:23;;;;;;;;;3.00;1.00;;;;;19.03;41.41;100215.03;6320014;20;2728485;-57
2023/05/09 10:47:52;;;;;;;;;4.00;4.00;;;;;19.00;41.57;100212.59;6293740;20;2756566;-58
2023/05/09 10:50:21;;;;;;;;;3.00;3.00;;;;;19.98;39.38;100215.66;6286036;20;2746170;-58
2023/05/09 10:53:20;;;;;;;;;2.67;2.67;;;;;20.54;40.51;100217.69;6290688;20;2734662;-58
2023/05/09 10:55:59;;;;;;;;;3.00;3.00;;;;;18.55;42.80;100210.16;6317591;20;2734723;-58
2023/05/09 10:58:32;;;;;;;;;8.00;3.00;;;;;19.15;42.07;100210.38;6295814;20;2756564;-59
2023/05/09 11:01:02;;;;;;;;;3.00;3.00;;;;;20.71;39.07;100214.22;6288907;20;2727376;-57
2023/05/09 11:03:54;;;;;;;;;3.00;3.00;;;;;21.21;39.14;100216.63;6318147;20;2751331;-59
2023/05/09 11:06:45;;;;;;;;;2.33;2.33;;;;;18.62;42.66;100203.22;6316371;20;2725310;-58
2023/05/09 11:09:36;;;;;;;;;3.00;2.00;;;;;19.75;41.09;100210.47;6322365;20;2745053;-58
2023/05/09 11:12:04;;;;;;;;;2.67;2.67;;;;;19.92;39.60;100201.59;6289495;20;2755626;-58
2023/05/09 11:14:47;;;;;;;;;2.00;2.00;;;;;18.83;41.37;100192.34;6317427;20;2750670;-58
2023/05/09 11:17:21;;;;;;;;;3.00;3.00;;;;;19.64;40.91;100199.63;6319940;20;2747296;-57